CW3884 Weather Reports


Display with metric or nautical units.
time (UTC)temp
F
wind
direction
speed
MPH
gust
MPH
rain 1hr
in
rain 24hr
in
rain mn
in
humidity
%
barometer
mb
20190326171831 52 218 2.0 4.0 0.00 0.68 0.07 97 1018.0
20190326171334 52 217 2.0 4.0 0.00 0.68 0.07 97 1018.0
20190326170821 52 213 0.0 3.0 0.00 0.68 0.07 98 1018.0
20190326170331 52 213 1.0 3.0 0.00 0.68 0.07 98 1018.0
20190326165838 51 212 0.0 3.0 0.00 0.68 0.07 98 1018.0
20190326165334 51 212 0.0 0.0 0.00 0.68 0.07 98 1018.0
20190326164820 51 212 0.0 0.0 0.00 0.68 0.07 98 1017.9
20190326164322 51 211 0.0 2.0 0.00 0.68 0.07 98 1017.9
20190326163834 51 211 0.0 2.0 0.00 0.68 0.07 98 1017.9
20190326163321 51 212 0.0 0.0 0.00 0.68 0.07 98 1018.0
20190326162836 50 212 0.0 0.0 0.00 0.68 0.07 98 1018.0
20190326162323 50 212 0.0 0.0 0.00 0.68 0.07 98 1018.0
20190326161847 50 212 0.0 0.0 0.00 0.68 0.07 98 1018.1
20190326064824 53 204 0.0 0.0 0.03 0.59 0.59 96 1018.5
20190326064320 53 205 0.0 0.0 0.02 0.58 0.58 96 1018.5
20190326063829 53 205 0.0 0.0 0.02 0.58 0.58 96 1018.5
20190326063337 53 205 0.0 0.0 0.02 0.58 0.58 96 1018.5
20190326062833 53 205 0.0 0.0 0.01 0.57 0.57 96 1018.5
20190326062337 54 205 0.0 0.0 0.01 0.57 0.57 96 1018.5
20190326061823 54 205 0.0 0.0 0.00 0.56 0.56 96 1018.4
20190326061331 54 205 0.0 0.0 0.01 0.56 0.56 96 1018.4
20190326060836 54 205 0.0 0.0 0.01 0.56 0.56 96 1018.4
20190326060329 54 205 0.0 0.0 0.01 0.56 0.56 96 1018.3
20190326055837 54 205 0.0 0.0 0.01 0.56 0.56 96 1018.3
20190326055324 54 205 0.0 0.0 0.01 0.56 0.56 96 1018.3
20190326054829 54 205 0.0 0.0 0.01 0.56 0.56 96 1018.4
20190326054320 54 205 0.0 0.0 0.01 0.56 0.56 96 1018.4
20190326053826 54 205 0.0 0.0 0.01 0.56 0.56 96 1018.4
20190326053328 54 205 0.0 0.0 0.01 0.56 0.56 96 1018.5
20190326052839 54 205 0.0 0.0 0.01 0.56 0.56 96 1018.5
20190326052325 54 205 0.0 0.0 0.01 0.56 0.56 96 1018.5
20190326051830 54 205 0.0 0.0 0.01 0.56 0.56 96 1018.5
20190326051322 54 205 0.0 0.0 0.00 0.55 0.55 96 1018.5
20190326050830 54 205 0.0 0.0 0.00 0.55 0.55 96 1018.5
20190326050330 54 205 0.0 0.0 0.00 0.55 0.55 96 1018.5
20190326045823 54 205 0.0 0.0 0.00 0.55 0.55 96 1018.5
20190326045332 54 205 0.0 0.0 0.00 0.55 0.55 96 1018.5
20190326044837 54 205 0.0 0.0 0.01 0.55 0.55 96 1018.5
20190326044334 54 205 0.0 0.0 0.01 0.55 0.55 96 1018.5
20190326043823 54 205 0.0 0.0 0.01 0.55 0.55 96 1018.5
20190326043324 54 205 0.0 0.0 0.01 0.55 0.55 96 1018.5
20190326042830 54 205 0.0 0.0 0.01 0.55 0.55 96 1018.5
20190326042337 54 205 0.0 0.0 0.01 0.55 0.55 96 1018.5
20190326041823 54 207 0.0 0.0 0.02 0.55 0.55 96 1018.2
20190326041334 54 207 0.0 0.0 0.03 0.55 0.55 95 1018.2
20190326040822 54 207 0.0 0.0 0.05 0.55 0.55 95 1018.2
20190326040335 54 207 0.0 0.0 0.06 0.55 0.55 96 1018.0
20190326035820 54 207 0.0 0.0 0.07 0.55 0.55 95 1018.0
20190326035339 54 207 0.0 0.0 0.07 0.55 0.55 95 1018.0
20190326034828 54 207 0.0 0.0 0.07 0.54 0.54 95 1018.0
20190326034329 54 206 0.0 2.0 0.09 0.54 0.54 95 1018.0
20190326033832 54 206 0.0 4.0 0.10 0.54 0.54 95 1018.0
20190326033337 54 205 1.0 6.0 0.11 0.54 0.54 95 1018.0
20190326032831 54 242 1.0 6.0 0.13 0.54 0.54 95 1018.0
20190326032335 54 242 0.0 5.0 0.13 0.54 0.54 95 1018.0
20190326031824 54 240 1.0 5.0 0.14 0.53 0.53 95 1017.9
20190326031329 54 241 0.0 2.0 0.14 0.52 0.52 95 1017.9
20190326030834 54 241 0.0 2.0 0.13 0.50 0.50 95 1017.9
20190326030336 54 241 0.0 2.0 0.12 0.49 0.49 94 1017.9
20190326025824 54 241 0.0 3.0 0.12 0.48 0.48 94 1017.9
20190326025333 55 241 1.0 3.0 0.11 0.47 0.47 94 1017.9
20190326024836 55 241 1.0 4.0 0.12 0.47 0.47 94 1018.0
20190326024337 55 240 1.0 4.0 0.10 0.45 0.45 94 1018.0
20190326023838 55 240 0.0 5.0 0.10 0.44 0.44 94 1018.0
20190326023323 55 241 1.0 6.0 0.10 0.43 0.43 94 1018.0
20190326022827 55 246 1.0 6.0 0.08 0.41 0.41 94 1018.0
20190326022332 55 223 2.0 6.0 0.08 0.40 0.40 94 1018.0
20190326021821 55 223 0.0 6.0 0.08 0.39 0.39 94 1017.9
20190326021334 55 173 1.0 6.0 0.08 0.38 0.38 94 1017.9
20190326020820 56 155 2.0 6.0 0.08 0.37 0.37 95 1017.9
20190326020327 56 203 0.0 2.0 0.09 0.37 0.37 95 1018.0
20190326015832 56 203 0.0 2.0 0.09 0.36 0.36 95 1018.0
20190326015324 56 203 0.0 5.0 0.11 0.36 0.36 95 1018.0
20190326014833 56 203 1.0 5.0 0.10 0.35 0.35 95 1018.0
20190326014332 56 202 0.0 4.0 0.10 0.35 0.35 95 1018.0
20190326013822 56 201 0.0 4.0 0.10 0.34 0.34 94 1018.0
20190326013332 56 200 0.0 4.0 0.10 0.33 0.33 95 1017.9
20190326012823 56 195 1.0 4.0 0.12 0.33 0.33 94 1017.9
20190326012328 56 193 0.0 6.0 0.11 0.32 0.32 94 1017.9
20190326011829 56 191 0.0 4.0 0.11 0.31 0.31 94 1017.9
20190326011338 56 191 0.0 4.0 0.11 0.30 0.30 94 1017.9
20190326010827 57 205 0.0 5.0 0.14 0.29 0.29 94 1017.9
20190326010333 57 203 1.0 3.0 0.14 0.28 0.28 94 1017.9
20190326005830 57 200 0.0 2.0 0.13 0.26 0.27 94 1017.9
20190326005319 57 200 0.0 0.0 0.14 0.25 0.25 94 1017.9
20190326004825 57 200 0.0 0.0 0.15 0.25 0.25 93 1017.9
20190326004328 57 200 0.0 2.0 0.16 0.25 0.25 93 1017.9
20190326003834 57 200 0.0 4.0 0.16 0.24 0.24 93 1017.9
20190326003319 57 200 0.0 0.0 0.16 0.23 0.23 93 1018.1
20190326002835 57 200 0.0 1.0 0.14 0.21 0.21 93 1018.1
20190326002321 57 200 0.0 1.0 0.14 0.21 0.21 92 1018.1
20190326001829 57 200 0.0 3.0 0.13 0.20 0.20 92 1018.0
20190326001319 57 200 0.0 4.0 0.12 0.18 0.18 92 1018.0
20190326000826 57 200 1.0 5.0 0.09 0.15 0.15 92 1018.0
20190326000322 57 200 2.0 5.0 0.09 0.14 0.14 91 1018.0
20190325235823 57 199 0.0 5.0 0.09 0.13 0.13 91 1018.0
20190325235337 57 198 0.0 7.0 0.07 0.11 0.11 91 1018.0
20190325234829 57 237 2.0 7.0 0.06 0.10 0.10 90 1018.0
20190325234325 57 241 2.0 6.0 0.06 0.09 0.09 90 1018.0
20190325233829 57 196 3.0 6.0 0.06 0.08 0.08 89 1018.0
20190325233331 57 269 2.0 8.0 0.07 0.07 0.07 89 1018.0
20190325232822 57 230 1.0 3.0 0.07 0.07 0.07 89 1018.0
20190325232328 57 230 0.0 4.0 0.07 0.07 0.07 88 1018.0
20190325231833 57 230 0.0 4.0 0.07 0.07 0.07 88 1018.0
20190325231321 57 230 0.0 3.0 0.06 0.06 0.06 87 1018.0
20190325230829 57 230 0.0 3.0 0.06 0.06 0.06 86 1018.0
20190325230337 57 230 0.0 7.0 0.05 0.05 0.05 86 1018.3
20190325225820 57 230 2.0 7.0 0.04 0.04 0.04 85 1018.3
20190325225325 58 229 1.0 9.0 0.04 0.04 0.04 84 1018.3
20190325224836 58 222 2.0 11.0 0.04 0.04 0.04 82 1018.5
20190325224328 59 237 5.0 11.0 0.03 0.03 0.03 79 1018.5
20190325223837 59 287 0.0 7.0 0.02 0.02 0.02 77 1018.5
20190325223325 59 286 3.0 7.0 0.00 0.00 0.00 74 1018.0
20190325222838 60 275 2.0 8.0 0.00 0.00 0.00 72 1018.0
20190325222327 61 249 1.0 8.0 0.00 0.00 0.00 69 1018.0
20190325221829 61 238 1.0 7.0 0.00 0.00 0.00 67 1018.2
20190325221331 62 238 2.0 9.0 0.00 0.00 0.00 64 1018.2
20190325220833 62 237 4.0 9.0 0.00 0.00 0.00 60 1018.2
20190325220337 62 236 4.0 8.0 0.00 0.00 0.00 62 1018.2
20190325215826 62 205 3.0 11.0 0.00 0.00 0.00 60 1018.2
20190325215331 63 127 4.0 11.0 0.00 0.00 0.00 58 1018.2
20190325214836 63 173 5.0 10.0 0.00 0.00 0.00 55 1018.0
20190325214331 63 203 1.0 6.0 0.00 0.00 0.00 54 1018.0
20190325213833 63 206 2.0 6.0 0.00 0.00 0.00 53 1018.0
20190325213322 63 111 1.0 9.0 0.00 0.00 0.00 54 1018.3
20190325212832 63 120 1.0 9.0 0.00 0.00 0.00 53 1018.3
20190325212337 63 143 1.0 9.0 0.00 0.00 0.00 54 1018.3
20190325211827 63 165 3.0 10.0 0.00 0.00 0.00 53 1018.4
20190325211335 63 123 4.0 10.0 0.00 0.00 0.00 53 1018.4
20190325210824 63 259 4.0 12.0 0.00 0.00 0.00 54 1018.4
20190325210335 63 209 3.0 9.0 0.00 0.00 0.00 53 1018.4
20190325205821 63 188 4.0 13.0 0.00 0.00 0.00 52 1018.4
20190325205331 64 174 4.0 13.0 0.00 0.00 0.00 50 1018.4
20190325204819 64 144 4.0 13.0 0.00 0.00 0.00 49 1018.4
20190325204333 64 204 3.0 13.0 0.00 0.00 0.00 49 1018.4
20190325203821 64 129 4.0 13.0 0.00 0.00 0.00 49 1018.4
20190325203330 64 171 4.0 12.0 0.00 0.00 0.00 49 1018.3
20190325202817 65 228 4.0 12.0 0.00 0.00 0.00 49 1018.3
20190325202330 65 137 0.0 9.0 0.00 0.00 0.00 50 1018.3
20190325201838 65 168 2.0 9.0 0.00 0.00 0.00 49 1018.4
20190325201320 65 217 2.0 9.0 0.00 0.00 0.00 49 1018.4
20190325200838 65 181 2.0 9.0 0.00 0.00 0.00 48 1018.4
20190325200323 65 186 4.0 11.0 0.00 0.00 0.00 46 1018.3
20190325195831 65 125 3.0 11.0 0.00 0.00 0.00 48 1018.3
20190325195316 65 155 0.0 10.0 0.00 0.00 0.00 47 1018.3
20190325194829 65 146 1.0 10.0 0.00 0.00 0.00 44 1018.2
20190325194330 65 177 1.0 13.0 0.00 0.00 0.00 44 1018.2
20190325193819 65 107 2.0 8.0 0.00 0.00 0.00 44 1018.2
20190325193323 65 84 2.0 9.0 0.00 0.00 0.00 45 1018.4
20190325192824 65 238 3.0 12.0 0.00 0.00 0.00 43 1018.4
20190325192332 65 132 5.0 12.0 0.00 0.00 0.00 42 1018.4
20190325191837 64 177 3.0 11.0 0.00 0.00 0.00 43 1018.5
20190325191322 64 167 1.0 12.0 0.00 0.00 0.00 42 1018.5
20190325190830 64 175 4.0 14.0 0.00 0.00 0.00 40 1018.5
20190325190338 64 107 4.0 14.0 0.00 0.00 0.00 41 1018.4
20190325185835 63 146 3.0 11.0 0.00 0.00 0.00 40 1018.4
20190325185320 63 159 3.0 10.0 0.00 0.00 0.00 39 1018.4
20190325184823 63 106 2.0 8.0 0.00 0.00 0.00 39 1018.8
20190325184326 63 151 3.0 12.0 0.00 0.00 0.00 38 1018.8
20190325183837 62 170 5.0 13.0 0.00 0.00 0.00 38 1018.8
20190325183319 62 84 6.0 13.0 0.00 0.00 0.00 36 1018.4
20190325182837 62 102 1.0 13.0 0.00 0.00 0.00 36 1018.4
20190325182320 62 211 4.0 10.0 0.00 0.00 0.00 35 1018.4
20190325181822 62 223 5.0 13.0 0.00 0.00 0.00 35 1018.5
20190325181329 62 209 3.0 13.0 0.00 0.00 0.00 33 1018.5
20190325180837 62 203 1.0 11.0 0.00 0.00 0.00 38 1018.5
20190325180322 62 122 1.0 9.0 0.00 0.00 0.00 36 1018.9
20190325175832 62 94 3.0 11.0 0.00 0.00 0.00 39 1018.9
20190325175336 61 148 4.0 14.0 0.00 0.00 0.00 38 1018.9
20190325174821 61 178 4.0 14.0 0.00 0.00 0.00 39 1019.0
20190325174318 61 232 2.0 8.0 0.00 0.00 0.00 40 1019.0
20190325173826 60 198 2.0 9.0 0.00 0.00 0.00 41 1019.0
20190325173334 60 193 4.0 10.0 0.00 0.00 0.00 39 1019.1
20190325172824 60 203 4.0 10.0 0.00 0.00 0.00 40 1019.1
20190325172334 60 153 4.0 11.0 0.00 0.00 0.00 41 1019.1